sensor_id;sensor_type;location;lat;lon;timestamp;temperature;humidity
3986;DHT22;2007;48.750;9.278;2022-09-09T00:02:00;23.90;54.40
3986;DHT22;2007;48.750;9.278;2022-09-09T00:04:32;23.90;54.40
3986;DHT22;2007;48.750;9.278;2022-09-09T00:07:03;23.90;54.40
3986;DHT22;2007;48.750;9.278;2022-09-09T00:09:39;23.90;54.40
3986;DHT22;2007;48.750;9.278;2022-09-09T00:12:11;23.90;54.40
3986;DHT22;2007;48.750;9.278;2022-09-09T00:14:48;23.90;54.40
3986;DHT22;2007;48.750;9.278;2022-09-09T00:17:25;23.90;54.40
3986;DHT22;2007;48.750;9.278;2022-09-09T00:20:00;23.90;54.40
3986;DHT22;2007;48.750;9.278;2022-09-09T00:22:30;23.90;54.30
3986;DHT22;2007;48.750;9.278;2022-09-09T00:25:08;23.90;54.40
3986;DHT22;2007;48.750;9.278;2022-09-09T00:27:41;23.90;54.30
3986;DHT22;2007;48.750;9.278;2022-09-09T00:30:18;23.90;54.30
3986;DHT22;2007;48.750;9.278;2022-09-09T00:32:49;23.90;54.40
3986;DHT22;2007;48.750;9.278;2022-09-09T00:35:22;23.90;54.40
3986;DHT22;2007;48.750;9.278;2022-09-09T00:37:53;23.90;54.40
3986;DHT22;2007;48.750;9.278;2022-09-09T00:40:31;23.90;54.40
3986;DHT22;2007;48.750;9.278;2022-09-09T00:43:14;23.90;54.40
3986;DHT22;2007;48.750;9.278;2022-09-09T00:46:12;23.90;54.40
3986;DHT22;2007;48.750;9.278;2022-09-09T00:48:49;23.90;54.40
3986;DHT22;2007;48.750;9.278;2022-09-09T00:51:27;23.90;54.40
3986;DHT22;2007;48.750;9.278;2022-09-09T00:54:18;23.90;54.40
3986;DHT22;2007;48.750;9.278;2022-09-09T00:56:55;23.90;54.40
3986;DHT22;2007;48.750;9.278;2022-09-09T00:59:30;23.80;54.30
3986;DHT22;2007;48.750;9.278;2022-09-09T01:02:08;23.90;54.40
3986;DHT22;2007;48.750;9.278;2022-09-09T01:04:41;23.80;54.30
3986;DHT22;2007;48.750;9.278;2022-09-09T01:07:16;23.80;54.30
3986;DHT22;2007;48.750;9.278;2022-09-09T01:09:53;23.90;54.40
3986;DHT22;2007;48.750;9.278;2022-09-09T01:12:38;23.80;54.30
3986;DHT22;2007;48.750;9.278;2022-09-09T01:15:12;23.80;54.30
3986;DHT22;2007;48.750;9.278;2022-09-09T01:17:51;23.80;54.30
3986;DHT22;2007;48.750;9.278;2022-09-09T01:20:23;23.80;54.30
3986;DHT22;2007;48.750;9.278;2022-09-09T01:23:04;23.80;54.30
3986;DHT22;2007;48.750;9.278;2022-09-09T01:26:13;23.80;54.30
3986;DHT22;2007;48.750;9.278;2022-09-09T01:28:45;23.80;54.30
3986;DHT22;2007;48.750;9.278;2022-09-09T01:31:17;23.80;54.30
3986;DHT22;2007;48.750;9.278;2022-09-09T01:33:45;23.80;54.30
3986;DHT22;2007;48.750;9.278;2022-09-09T01:36:22;23.80;54.30
3986;DHT22;2007;48.750;9.278;2022-09-09T01:38:52;23.80;54.30
3986;DHT22;2007;48.750;9.278;2022-09-09T01:41:22;23.80;54.30
3986;DHT22;2007;48.750;9.278;2022-09-09T01:43:50;23.80;54.30
3986;DHT22;2007;48.750;9.278;2022-09-09T01:46:19;23.80;54.30
3986;DHT22;2007;48.750;9.278;2022-09-09T01:48:50;23.80;54.30
3986;DHT22;2007;48.750;9.278;2022-09-09T01:51:18;23.80;54.30
3986;DHT22;2007;48.750;9.278;2022-09-09T01:53:46;23.80;54.30
3986;DHT22;2007;48.750;9.278;2022-09-09T01:56:25;23.80;54.30
3986;DHT22;2007;48.750;9.278;2022-09-09T01:59:07;23.80;54.30
3986;DHT22;2007;48.750;9.278;2022-09-09T02:01:48;23.80;54.30
3986;DHT22;2007;48.750;9.278;2022-09-09T02:04:31;23.80;54.30
3986;DHT22;2007;48.750;9.278;2022-09-09T02:07:09;23.80;54.30
3986;DHT22;2007;48.750;9.278;2022-09-09T02:09:42;23.80;54.30
3986;DHT22;2007;48.750;9.278;2022-09-09T02:12:15;23.80;54.30
3986;DHT22;2007;48.750;9.278;2022-09-09T02:14:49;23.80;54.90
3986;DHT22;2007;48.750;9.278;2022-09-09T02:17:22;23.80;54.30
3986;DHT22;2007;48.750;9.278;2022-09-09T02:19:56;23.80;54.30
3986;DHT22;2007;48.750;9.278;2022-09-09T02:22:26;23.80;54.30
3986;DHT22;2007;48.750;9.278;2022-09-09T02:24:57;23.80;54.30
3986;DHT22;2007;48.750;9.278;2022-09-09T02:27:27;23.80;54.30
3986;DHT22;2007;48.750;9.278;2022-09-09T02:29:57;23.80;54.30
3986;DHT22;2007;48.750;9.278;2022-09-09T02:32:27;23.80;54.30
3986;DHT22;2007;48.750;9.278;2022-09-09T02:35:00;23.80;54.30
3986;DHT22;2007;48.750;9.278;2022-09-09T02:37:33;23.80;54.30
3986;DHT22;2007;48.750;9.278;2022-09-09T02:40:03;23.80;54.30
3986;DHT22;2007;48.750;9.278;2022-09-09T02:42:38;23.80;54.30
3986;DHT22;2007;48.750;9.278;2022-09-09T02:45:08;23.80;54.30
3986;DHT22;2007;48.750;9.278;2022-09-09T02:47:38;23.80;54.30
3986;DHT22;2007;48.750;9.278;2022-09-09T02:50:12;23.80;54.30
3986;DHT22;2007;48.750;9.278;2022-09-09T02:52:51;23.80;54.30
3986;DHT22;2007;48.750;9.278;2022-09-09T02:55:24;23.70;54.20
3986;DHT22;2007;48.750;9.278;2022-09-09T02:57:58;23.80;54.30
3986;DHT22;2007;48.750;9.278;2022-09-09T03:00:27;23.70;54.20
3986;DHT22;2007;48.750;9.278;2022-09-09T03:02:55;23.70;54.20
3986;DHT22;2007;48.750;9.278;2022-09-09T03:05:23;23.70;54.20
3986;DHT22;2007;48.750;9.278;2022-09-09T03:07:51;23.70;54.20
3986;DHT22;2007;48.750;9.278;2022-09-09T03:10:19;23.70;54.20
3986;DHT22;2007;48.750;9.278;2022-09-09T03:12:47;23.70;54.20
3986;DHT22;2007;48.750;9.278;2022-09-09T03:15:16;23.70;54.20
3986;DHT22;2007;48.750;9.278;2022-09-09T03:17:44;23.70;54.20
3986;DHT22;2007;48.750;9.278;2022-09-09T03:20:12;23.70;54.20
3986;DHT22;2007;48.750;9.278;2022-09-09T03:22:40;23.70;54.20
3986;DHT22;2007;48.750;9.278;2022-09-09T03:25:08;23.70;54.20
3986;DHT22;2007;48.750;9.278;2022-09-09T03:27:36;23.70;54.20
3986;DHT22;2007;48.750;9.278;2022-09-09T03:30:05;23.70;54.20
3986;DHT22;2007;48.750;9.278;2022-09-09T03:32:34;23.70;54.20
3986;DHT22;2007;48.750;9.278;2022-09-09T03:35:03;23.70;54.20
3986;DHT22;2007;48.750;9.278;2022-09-09T03:37:31;23.70;54.20
3986;DHT22;2007;48.750;9.278;2022-09-09T03:39:58;23.70;54.20
3986;DHT22;2007;48.750;9.278;2022-09-09T03:42:27;23.70;54.20
3986;DHT22;2007;48.750;9.278;2022-09-09T03:44:55;23.70;54.20
3986;DHT22;2007;48.750;9.278;2022-09-09T03:47:24;23.70;54.20
3986;DHT22;2007;48.750;9.278;2022-09-09T03:49:53;23.70;54.20
3986;DHT22;2007;48.750;9.278;2022-09-09T03:52:21;23.70;54.20
3986;DHT22;2007;48.750;9.278;2022-09-09T03:54:51;23.70;54.20
3986;DHT22;2007;48.750;9.278;2022-09-09T03:57:19;23.60;54.20
3986;DHT22;2007;48.750;9.278;2022-09-09T03:59:48;23.60;54.10
3986;DHT22;2007;48.750;9.278;2022-09-09T04:02:16;23.60;54.20
3986;DHT22;2007;48.750;9.278;2022-09-09T04:04:43;23.60;54.20
3986;DHT22;2007;48.750;9.278;2022-09-09T04:07:13;23.60;54.20
3986;DHT22;2007;48.750;9.278;2022-09-09T04:09:41;23.60;54.20
3986;DHT22;2007;48.750;9.278;2022-09-09T04:12:09;23.60;54.20
3986;DHT22;2007;48.750;9.278;2022-09-09T04:14:40;23.60;54.20
3986;DHT22;2007;48.750;9.278;2022-09-09T04:17:08;23.60;54.20
3986;DHT22;2007;48.750;9.278;2022-09-09T04:19:35;23.60;54.20
3986;DHT22;2007;48.750;9.278;2022-09-09T04:22:03;23.60;54.20
3986;DHT22;2007;48.750;9.278;2022-09-09T04:24:32;23.60;54.20
3986;DHT22;2007;48.750;9.278;2022-09-09T04:27:01;23.60;54.20
3986;DHT22;2007;48.750;9.278;2022-09-09T04:29:29;23.60;54.20
3986;DHT22;2007;48.750;9.278;2022-09-09T04:31:57;23.60;54.20
3986;DHT22;2007;48.750;9.278;2022-09-09T04:34:25;23.60;54.20
3986;DHT22;2007;48.750;9.278;2022-09-09T04:36:53;23.60;54.20
3986;DHT22;2007;48.750;9.278;2022-09-09T04:39:21;23.60;54.20
3986;DHT22;2007;48.750;9.278;2022-09-09T04:41:50;23.60;54.90
3986;DHT22;2007;48.750;9.278;2022-09-09T04:44:19;23.60;54.20
3986;DHT22;2007;48.750;9.278;2022-09-09T04:46:47;23.60;54.20
3986;DHT22;2007;48.750;9.278;2022-09-09T04:49:15;23.60;54.20
3986;DHT22;2007;48.750;9.278;2022-09-09T04:51:43;23.60;54.20
3986;DHT22;2007;48.750;9.278;2022-09-09T04:54:11;23.60;54.20
3986;DHT22;2007;48.750;9.278;2022-09-09T04:56:39;23.60;54.20
3986;DHT22;2007;48.750;9.278;2022-09-09T04:59:10;23.60;54.20
3986;DHT22;2007;48.750;9.278;2022-09-09T05:01:37;23.60;54.30
3986;DHT22;2007;48.750;9.278;2022-09-09T05:04:05;23.60;54.30
3986;DHT22;2007;48.750;9.278;2022-09-09T05:06:33;23.60;54.20
3986;DHT22;2007;48.750;9.278;2022-09-09T05:09:02;23.60;54.20
3986;DHT22;2007;48.750;9.278;2022-09-09T05:11:32;23.60;54.30
3986;DHT22;2007;48.750;9.278;2022-09-09T05:14:03;23.60;54.20
3986;DHT22;2007;48.750;9.278;2022-09-09T05:16:32;23.50;54.10
3986;DHT22;2007;48.750;9.278;2022-09-09T05:19:00;23.50;54.20
3986;DHT22;2007;48.750;9.278;2022-09-09T05:21:29;23.50;54.10
3986;DHT22;2007;48.750;9.278;2022-09-09T05:23:58;23.50;54.10
3986;DHT22;2007;48.750;9.278;2022-09-09T05:26:27;23.50;54.10
3986;DHT22;2007;48.750;9.278;2022-09-09T05:28:56;23.50;54.10
3986;DHT22;2007;48.750;9.278;2022-09-09T05:31:25;23.50;54.10
3986;DHT22;2007;48.750;9.278;2022-09-09T05:33:56;23.50;54.20
3986;DHT22;2007;48.750;9.278;2022-09-09T05:36:25;23.50;54.20
3986;DHT22;2007;48.750;9.278;2022-09-09T05:38:53;23.50;54.20
3986;DHT22;2007;48.750;9.278;2022-09-09T05:41:21;23.50;54.20
3986;DHT22;2007;48.750;9.278;2022-09-09T05:43:49;23.50;54.20
3986;DHT22;2007;48.750;9.278;2022-09-09T05:46:19;23.50;54.20
3986;DHT22;2007;48.750;9.278;2022-09-09T05:48:49;23.50;54.20
3986;DHT22;2007;48.750;9.278;2022-09-09T05:51:21;23.50;54.20
3986;DHT22;2007;48.750;9.278;2022-09-09T05:53:50;23.50;54.20
3986;DHT22;2007;48.750;9.278;2022-09-09T05:56:20;23.50;54.20
3986;DHT22;2007;48.750;9.278;2022-09-09T05:58:49;23.50;54.20
3986;DHT22;2007;48.750;9.278;2022-09-09T06:01:20;23.50;54.20
3986;DHT22;2007;48.750;9.278;2022-09-09T06:03:49;23.50;54.20
3986;DHT22;2007;48.750;9.278;2022-09-09T06:06:20;23.50;54.20
3986;DHT22;2007;48.750;9.278;2022-09-09T06:08:50;23.50;54.20
3986;DHT22;2007;48.750;9.278;2022-09-09T06:11:20;23.50;54.20
3986;DHT22;2007;48.750;9.278;2022-09-09T06:13:48;23.50;54.20
3986;DHT22;2007;48.750;9.278;2022-09-09T06:16:19;23.50;54.20
3986;DHT22;2007;48.750;9.278;2022-09-09T06:18:50;23.50;54.20
3986;DHT22;2007;48.750;9.278;2022-09-09T06:21:21;23.50;54.20
3986;DHT22;2007;48.750;9.278;2022-09-09T06:23:50;23.50;54.20
3986;DHT22;2007;48.750;9.278;2022-09-09T06:26:27;23.50;54.90
3986;DHT22;2007;48.750;9.278;2022-09-09T06:28:55;23.40;54.10
3986;DHT22;2007;48.750;9.278;2022-09-09T06:31:26;23.40;54.10
3986;DHT22;2007;48.750;9.278;2022-09-09T06:33:58;23.40;54.10
3986;DHT22;2007;48.750;9.278;2022-09-09T06:36:29;23.40;54.10
3986;DHT22;2007;48.750;9.278;2022-09-09T06:38:58;23.40;54.10
3986;DHT22;2007;48.750;9.278;2022-09-09T06:41:27;23.40;54.10
3986;DHT22;2007;48.750;9.278;2022-09-09T06:43:55;23.40;54.10
3986;DHT22;2007;48.750;9.278;2022-09-09T06:46:24;23.40;54.10
3986;DHT22;2007;48.750;9.278;2022-09-09T06:48:55;23.40;54.10
3986;DHT22;2007;48.750;9.278;2022-09-09T06:51:28;23.40;54.20
3986;DHT22;2007;48.750;9.278;2022-09-09T06:53:58;23.40;54.20
3986;DHT22;2007;48.750;9.278;2022-09-09T06:56:27;23.40;54.10
3986;DHT22;2007;48.750;9.278;2022-09-09T06:58:57;23.40;54.20
3986;DHT22;2007;48.750;9.278;2022-09-09T07:01:27;23.40;54.20
3986;DHT22;2007;48.750;9.278;2022-09-09T07:03:57;23.40;54.20
3986;DHT22;2007;48.750;9.278;2022-09-09T07:06:29;23.40;54.20
3986;DHT22;2007;48.750;9.278;2022-09-09T07:08:58;23.40;54.20
3986;DHT22;2007;48.750;9.278;2022-09-09T07:11:29;23.40;54.20
3986;DHT22;2007;48.750;9.278;2022-09-09T07:13:59;23.40;54.20
3986;DHT22;2007;48.750;9.278;2022-09-09T07:16:27;23.40;54.20
3986;DHT22;2007;48.750;9.278;2022-09-09T07:18:56;23.40;54.20
3986;DHT22;2007;48.750;9.278;2022-09-09T07:21:25;23.40;54.20
3986;DHT22;2007;48.750;9.278;2022-09-09T07:23:55;23.40;54.20
3986;DHT22;2007;48.750;9.278;2022-09-09T07:26:25;23.40;54.20
3986;DHT22;2007;48.750;9.278;2022-09-09T07:28:54;23.40;54.20
3986;DHT22;2007;48.750;9.278;2022-09-09T07:31:24;23.40;54.20
3986;DHT22;2007;48.750;9.278;2022-09-09T07:33:53;23.40;54.20
3986;DHT22;2007;48.750;9.278;2022-09-09T07:36:23;23.40;54.20
3986;DHT22;2007;48.750;9.278;2022-09-09T07:39:01;23.40;54.20
3986;DHT22;2007;48.750;9.278;2022-09-09T07:41:32;23.40;54.20
3986;DHT22;2007;48.750;9.278;2022-09-09T07:44:04;23.40;54.20
3986;DHT22;2007;48.750;9.278;2022-09-09T07:46:33;23.40;54.20
3986;DHT22;2007;48.750;9.278;2022-09-09T07:49:02;23.40;54.20
3986;DHT22;2007;48.750;9.278;2022-09-09T07:51:32;23.40;54.20
3986;DHT22;2007;48.750;9.278;2022-09-09T07:54:03;23.40;54.20
3986;DHT22;2007;48.750;9.278;2022-09-09T07:56:32;23.40;54.20
3986;DHT22;2007;48.750;9.278;2022-09-09T07:59:00;23.40;54.20
3986;DHT22;2007;48.750;9.278;2022-09-09T08:01:30;23.40;54.20
3986;DHT22;2007;48.750;9.278;2022-09-09T08:04:00;23.30;54.10
3986;DHT22;2007;48.750;9.278;2022-09-09T08:06:30;23.30;54.10
3986;DHT22;2007;48.750;9.278;2022-09-09T08:09:00;23.30;54.20
3986;DHT22;2007;48.750;9.278;2022-09-09T08:11:29;23.30;54.20
3986;DHT22;2007;48.750;9.278;2022-09-09T08:14:05;23.30;54.20
3986;DHT22;2007;48.750;9.278;2022-09-09T08:16:35;23.30;54.20
3986;DHT22;2007;48.750;9.278;2022-09-09T08:19:04;23.30;54.20
3986;DHT22;2007;48.750;9.278;2022-09-09T08:21:35;23.30;54.20
3986;DHT22;2007;48.750;9.278;2022-09-09T08:24:06;23.30;54.20
3986;DHT22;2007;48.750;9.278;2022-09-09T08:26:36;23.30;54.20
3986;DHT22;2007;48.750;9.278;2022-09-09T08:29:06;23.30;54.20
3986;DHT22;2007;48.750;9.278;2022-09-09T08:31:36;23.30;54.20
3986;DHT22;2007;48.750;9.278;2022-09-09T08:34:06;23.30;54.20
3986;DHT22;2007;48.750;9.278;2022-09-09T08:36:36;23.30;54.20
3986;DHT22;2007;48.750;9.278;2022-09-09T08:39:06;23.30;54.20
3986;DHT22;2007;48.750;9.278;2022-09-09T08:41:43;23.30;54.20
3986;DHT22;2007;48.750;9.278;2022-09-09T08:44:19;23.30;54.20
3986;DHT22;2007;48.750;9.278;2022-09-09T08:46:57;23.30;54.20
3986;DHT22;2007;48.750;9.278;2022-09-09T08:52:25;23.30;54.20
3986;DHT22;2007;48.750;9.278;2022-09-09T08:54:59;23.30;54.20
3986;DHT22;2007;48.750;9.278;2022-09-09T08:57:31;23.30;54.20
3986;DHT22;2007;48.750;9.278;2022-09-09T08:59:59;23.30;54.30
3986;DHT22;2007;48.750;9.278;2022-09-09T09:02:32;23.30;54.30
3986;DHT22;2007;48.750;9.278;2022-09-09T09:05:16;23.30;54.30
3986;DHT22;2007;48.750;9.278;2022-09-09T09:07:55;23.30;54.30
3986;DHT22;2007;48.750;9.278;2022-09-09T09:10:42;23.30;54.30
3986;DHT22;2007;48.750;9.278;2022-09-09T09:13:15;23.30;54.30
3986;DHT22;2007;48.750;9.278;2022-09-09T09:15:49;23.30;54.30
3986;DHT22;2007;48.750;9.278;2022-09-09T09:18:17;23.30;54.30
3986;DHT22;2007;48.750;9.278;2022-09-09T09:20:52;23.30;54.30
3986;DHT22;2007;48.750;9.278;2022-09-09T09:23:23;23.30;54.30
3986;DHT22;2007;48.750;9.278;2022-09-09T09:25:58;23.30;54.30
3986;DHT22;2007;48.750;9.278;2022-09-09T09:28:28;23.30;54.30
3986;DHT22;2007;48.750;9.278;2022-09-09T09:31:01;23.30;54.30
3986;DHT22;2007;48.750;9.278;2022-09-09T09:33:35;23.30;54.30
3986;DHT22;2007;48.750;9.278;2022-09-09T09:36:07;23.30;54.30
3986;DHT22;2007;48.750;9.278;2022-09-09T09:38:37;23.30;54.30
3986;DHT22;2007;48.750;9.278;2022-09-09T09:41:35;23.30;54.30
3986;DHT22;2007;48.750;9.278;2022-09-09T09:44:04;23.30;54.30
3986;DHT22;2007;48.750;9.278;2022-09-09T09:46:32;23.30;54.30
3986;DHT22;2007;48.750;9.278;2022-09-09T09:49:02;23.30;54.30
3986;DHT22;2007;48.750;9.278;2022-09-09T09:51:31;23.30;54.30
3986;DHT22;2007;48.750;9.278;2022-09-09T09:54:09;23.30;54.30
3986;DHT22;2007;48.750;9.278;2022-09-09T09:56:44;23.30;54.40
3986;DHT22;2007;48.750;9.278;2022-09-09T09:59:21;23.20;54.30
3986;DHT22;2007;48.750;9.278;2022-09-09T10:02:16;23.30;54.40
3986;DHT22;2007;48.750;9.278;2022-09-09T10:04:45;23.20;54.30
3986;DHT22;2007;48.750;9.278;2022-09-09T10:07:18;23.20;54.30
3986;DHT22;2007;48.750;9.278;2022-09-09T10:09:48;23.20;54.30
3986;DHT22;2007;48.750;9.278;2022-09-09T10:12:28;23.20;54.30
3986;DHT22;2007;48.750;9.278;2022-09-09T10:15:04;23.20;54.30
3986;DHT22;2007;48.750;9.278;2022-09-09T10:17:44;23.20;54.30
3986;DHT22;2007;48.750;9.278;2022-09-09T10:20:27;23.20;54.30
3986;DHT22;2007;48.750;9.278;2022-09-09T10:23:07;23.20;54.30
3986;DHT22;2007;48.750;9.278;2022-09-09T10:25:57;23.20;54.30
3986;DHT22;2007;48.750;9.278;2022-09-09T10:28:40;23.20;54.30
3986;DHT22;2007;48.750;9.278;2022-09-09T10:31:19;23.20;54.30
3986;DHT22;2007;48.750;9.278;2022-09-09T10:33:55;23.20;54.30
3986;DHT22;2007;48.750;9.278;2022-09-09T10:36:26;23.20;54.30
3986;DHT22;2007;48.750;9.278;2022-09-09T10:38:59;23.20;54.30
3986;DHT22;2007;48.750;9.278;2022-09-09T10:41:44;23.20;54.30
3986;DHT22;2007;48.750;9.278;2022-09-09T10:44:30;23.20;54.30
3986;DHT22;2007;48.750;9.278;2022-09-09T10:47:20;23.20;54.30
3986;DHT22;2007;48.750;9.278;2022-09-09T10:50:11;23.20;54.40
3986;DHT22;2007;48.750;9.278;2022-09-09T10:52:48;23.20;54.40
3986;DHT22;2007;48.750;9.278;2022-09-09T10:55:23;23.20;54.40
3986;DHT22;2007;48.750;9.278;2022-09-09T10:57:58;23.20;54.40
3986;DHT22;2007;48.750;9.278;2022-09-09T11:00:36;23.20;54.40
3986;DHT22;2007;48.750;9.278;2022-09-09T11:03:05;23.20;55.00
3986;DHT22;2007;48.750;9.278;2022-09-09T11:05:40;23.20;54.30
3986;DHT22;2007;48.750;9.278;2022-09-09T11:08:12;23.20;54.40
3986;DHT22;2007;48.750;9.278;2022-09-09T11:10:45;23.20;55.00
3986;DHT22;2007;48.750;9.278;2022-09-09T11:13:19;23.20;54.40
3986;DHT22;2007;48.750;9.278;2022-09-09T11:15:53;23.20;54.30
3986;DHT22;2007;48.750;9.278;2022-09-09T11:18:23;23.20;54.40
3986;DHT22;2007;48.750;9.278;2022-09-09T11:20:56;23.20;54.40
3986;DHT22;2007;48.750;9.278;2022-09-09T11:23:28;23.20;54.30
3986;DHT22;2007;48.750;9.278;2022-09-09T11:26:05;23.20;54.40
3986;DHT22;2007;48.750;9.278;2022-09-09T11:28:44;23.10;54.20
3986;DHT22;2007;48.750;9.278;2022-09-09T11:31:41;23.20;54.40
3986;DHT22;2007;48.750;9.278;2022-09-09T11:34:26;23.20;54.40
3986;DHT22;2007;48.750;9.278;2022-09-09T11:37:08;23.10;54.30
3986;DHT22;2007;48.750;9.278;2022-09-09T11:40:09;23.10;54.30
3986;DHT22;2007;48.750;9.278;2022-09-09T11:42:37;23.10;54.30
3986;DHT22;2007;48.750;9.278;2022-09-09T11:45:10;23.20;54.40
3986;DHT22;2007;48.750;9.278;2022-09-09T11:47:51;23.10;54.30
3986;DHT22;2007;48.750;9.278;2022-09-09T11:50:31;23.10;54.30
3986;DHT22;2007;48.750;9.278;2022-09-09T11:53:05;23.10;54.30
3986;DHT22;2007;48.750;9.278;2022-09-09T11:55:42;23.10;54.30
3986;DHT22;2007;48.750;9.278;2022-09-09T11:58:17;23.10;55.00
3986;DHT22;2007;48.750;9.278;2022-09-09T12:00:47;23.10;54.40
3986;DHT22;2007;48.750;9.278;2022-09-09T12:03:38;23.10;54.30
3986;DHT22;2007;48.750;9.278;2022-09-09T12:06:11;23.10;54.40
3986;DHT22;2007;48.750;9.278;2022-09-09T12:08:43;23.10;54.30
3986;DHT22;2007;48.750;9.278;2022-09-09T12:11:24;23.10;54.40
3986;DHT22;2007;48.750;9.278;2022-09-09T12:13:53;23.10;54.40
3986;DHT22;2007;48.750;9.278;2022-09-09T12:16:30;23.10;54.40
3986;DHT22;2007;48.750;9.278;2022-09-09T12:19:14;23.10;54.30
3986;DHT22;2007;48.750;9.278;2022-09-09T12:21:48;23.10;54.30
3986;DHT22;2007;48.750;9.278;2022-09-09T12:24:25;23.10;54.30
3986;DHT22;2007;48.750;9.278;2022-09-09T12:26:58;23.10;54.30
3986;DHT22;2007;48.750;9.278;2022-09-09T12:29:38;23.10;54.30
3986;DHT22;2007;48.750;9.278;2022-09-09T12:32:11;23.10;54.40
3986;DHT22;2007;48.750;9.278;2022-09-09T12:34:46;23.10;54.30
3986;DHT22;2007;48.750;9.278;2022-09-09T12:37:27;23.10;54.40
3986;DHT22;2007;48.750;9.278;2022-09-09T12:39:58;23.10;54.40
3986;DHT22;2007;48.750;9.278;2022-09-09T12:42:27;23.10;54.40
3986;DHT22;2007;48.750;9.278;2022-09-09T12:44:57;23.10;54.40
3986;DHT22;2007;48.750;9.278;2022-09-09T12:47:30;23.10;54.40
3986;DHT22;2007;48.750;9.278;2022-09-09T12:50:01;23.10;54.40
3986;DHT22;2007;48.750;9.278;2022-09-09T12:52:32;23.10;54.40
3986;DHT22;2007;48.750;9.278;2022-09-09T12:55:05;23.10;54.40
3986;DHT22;2007;48.750;9.278;2022-09-09T12:57:36;23.10;54.30
3986;DHT22;2007;48.750;9.278;2022-09-09T13:00:07;23.10;54.30
3986;DHT22;2007;48.750;9.278;2022-09-09T13:02:47;23.10;54.30
3986;DHT22;2007;48.750;9.278;2022-09-09T13:05:20;23.10;54.40
3986;DHT22;2007;48.750;9.278;2022-09-09T13:07:49;23.10;54.30
3986;DHT22;2007;48.750;9.278;2022-09-09T13:10:23;23.10;54.30
3986;DHT22;2007;48.750;9.278;2022-09-09T13:13:14;23.10;54.30
3986;DHT22;2007;48.750;9.278;2022-09-09T13:15:49;23.10;54.30
3986;DHT22;2007;48.750;9.278;2022-09-09T13:18:21;23.10;54.30
3986;DHT22;2007;48.750;9.278;2022-09-09T13:20:51;23.10;54.30
3986;DHT22;2007;48.750;9.278;2022-09-09T13:23:20;23.10;54.30
3986;DHT22;2007;48.750;9.278;2022-09-09T13:25:56;23.10;54.30
3986;DHT22;2007;48.750;9.278;2022-09-09T13:28:29;23.10;54.20
3986;DHT22;2007;48.750;9.278;2022-09-09T13:31:01;23.10;54.30
3986;DHT22;2007;48.750;9.278;2022-09-09T13:33:32;23.10;54.30
3986;DHT22;2007;48.750;9.278;2022-09-09T13:36:04;23.10;54.20
3986;DHT22;2007;48.750;9.278;2022-09-09T13:38:36;23.10;54.20
3986;DHT22;2007;48.750;9.278;2022-09-09T13:41:06;23.10;54.20
3986;DHT22;2007;48.750;9.278;2022-09-09T13:43:37;23.10;54.20
3986;DHT22;2007;48.750;9.278;2022-09-09T13:46:24;23.10;54.20
3986;DHT22;2007;48.750;9.278;2022-09-09T13:48:56;23.10;54.20
3986;DHT22;2007;48.750;9.278;2022-09-09T13:51:34;23.10;54.20
3986;DHT22;2007;48.750;9.278;2022-09-09T13:54:04;23.10;54.20
3986;DHT22;2007;48.750;9.278;2022-09-09T13:56:33;23.10;54.20
3986;DHT22;2007;48.750;9.278;2022-09-09T13:59:02;23.10;54.20
3986;DHT22;2007;48.750;9.278;2022-09-09T14:01:30;23.10;54.20
3986;DHT22;2007;48.750;9.278;2022-09-09T14:04:01;23.10;54.10
3986;DHT22;2007;48.750;9.278;2022-09-09T14:06:31;23.10;54.10
3986;DHT22;2007;48.750;9.278;2022-09-09T14:08:59;23.10;54.20
3986;DHT22;2007;48.750;9.278;2022-09-09T14:11:26;23.10;54.20
3986;DHT22;2007;48.750;9.278;2022-09-09T14:13:54;23.10;54.20
3986;DHT22;2007;48.750;9.278;2022-09-09T14:16:22;23.10;54.80
3986;DHT22;2007;48.750;9.278;2022-09-09T14:18:50;23.10;54.20
3986;DHT22;2007;48.750;9.278;2022-09-09T14:21:18;23.10;54.20
3986;DHT22;2007;48.750;9.278;2022-09-09T14:23:48;23.10;54.20
3986;DHT22;2007;48.750;9.278;2022-09-09T14:26:16;23.10;54.20
3986;DHT22;2007;48.750;9.278;2022-09-09T14:28:45;23.10;54.20
3986;DHT22;2007;48.750;9.278;2022-09-09T14:31:22;23.10;54.20
3986;DHT22;2007;48.750;9.278;2022-09-09T14:33:50;23.10;54.20
3986;DHT22;2007;48.750;9.278;2022-09-09T14:36:19;23.10;54.20
3986;DHT22;2007;48.750;9.278;2022-09-09T14:38:48;23.10;54.20
3986;DHT22;2007;48.750;9.278;2022-09-09T14:41:18;23.10;54.20
3986;DHT22;2007;48.750;9.278;2022-09-09T14:43:46;23.10;54.20
3986;DHT22;2007;48.750;9.278;2022-09-09T14:46:15;23.10;54.30
3986;DHT22;2007;48.750;9.278;2022-09-09T14:48:44;23.10;54.30
3986;DHT22;2007;48.750;9.278;2022-09-09T14:51:14;23.10;54.30
3986;DHT22;2007;48.750;9.278;2022-09-09T14:53:43;23.10;54.30
3986;DHT22;2007;48.750;9.278;2022-09-09T14:56:15;23.10;54.40
3986;DHT22;2007;48.750;9.278;2022-09-09T14:58:43;23.10;54.30
3986;DHT22;2007;48.750;9.278;2022-09-09T15:01:13;23.10;54.30
3986;DHT22;2007;48.750;9.278;2022-09-09T15:03:42;23.10;54.30
3986;DHT22;2007;48.750;9.278;2022-09-09T15:06:12;23.10;54.20
3986;DHT22;2007;48.750;9.278;2022-09-09T15:08:42;23.10;54.20
3986;DHT22;2007;48.750;9.278;2022-09-09T15:11:13;23.10;54.10
3986;DHT22;2007;48.750;9.278;2022-09-09T15:13:43;23.10;54.10
3986;DHT22;2007;48.750;9.278;2022-09-09T15:16:13;23.10;54.10
3986;DHT22;2007;48.750;9.278;2022-09-09T15:18:42;23.10;54.10
3986;DHT22;2007;48.750;9.278;2022-09-09T15:21:12;23.10;54.10
3986;DHT22;2007;48.750;9.278;2022-09-09T15:23:40;23.10;54.10
3986;DHT22;2007;48.750;9.278;2022-09-09T15:26:08;23.10;54.10
3986;DHT22;2007;48.750;9.278;2022-09-09T15:28:38;23.10;54.10
3986;DHT22;2007;48.750;9.278;2022-09-09T15:31:11;23.10;54.00
3986;DHT22;2007;48.750;9.278;2022-09-09T15:33:41;23.10;54.00
3986;DHT22;2007;48.750;9.278;2022-09-09T15:36:15;23.10;54.10
3986;DHT22;2007;48.750;9.278;2022-09-09T15:38:44;23.10;54.00
3986;DHT22;2007;48.750;9.278;2022-09-09T15:41:13;23.10;54.00
3986;DHT22;2007;48.750;9.278;2022-09-09T15:43:44;23.10;54.00
3986;DHT22;2007;48.750;9.278;2022-09-09T15:46:28;23.10;54.00
3986;DHT22;2007;48.750;9.278;2022-09-09T15:48:58;23.10;54.00
3986;DHT22;2007;48.750;9.278;2022-09-09T15:51:26;23.10;54.00
3986;DHT22;2007;48.750;9.278;2022-09-09T15:54:12;23.10;54.00
3986;DHT22;2007;48.750;9.278;2022-09-09T15:56:40;23.10;54.00
3986;DHT22;2007;48.750;9.278;2022-09-09T15:59:09;23.10;54.10
3986;DHT22;2007;48.750;9.278;2022-09-09T16:01:38;23.10;54.10
3986;DHT22;2007;48.750;9.278;2022-09-09T16:04:07;23.10;54.10
3986;DHT22;2007;48.750;9.278;2022-09-09T16:06:35;23.10;54.10
3986;DHT22;2007;48.750;9.278;2022-09-09T16:09:05;23.10;54.00
3986;DHT22;2007;48.750;9.278;2022-09-09T16:11:35;23.10;54.00
3986;DHT22;2007;48.750;9.278;2022-09-09T16:14:04;23.10;54.00
3986;DHT22;2007;48.750;9.278;2022-09-09T16:16:35;23.10;54.00
3986;DHT22;2007;48.750;9.278;2022-09-09T16:19:05;23.10;54.60
3986;DHT22;2007;48.750;9.278;2022-09-09T16:21:35;23.10;54.00
3986;DHT22;2007;48.750;9.278;2022-09-09T16:24:05;23.10;54.00
3986;DHT22;2007;48.750;9.278;2022-09-09T16:26:35;23.10;54.00
3986;DHT22;2007;48.750;9.278;2022-09-09T16:29:03;23.10;54.00
3986;DHT22;2007;48.750;9.278;2022-09-09T16:31:31;23.10;54.00
3986;DHT22;2007;48.750;9.278;2022-09-09T16:34:01;23.10;54.00
3986;DHT22;2007;48.750;9.278;2022-09-09T16:36:31;23.10;54.70
3986;DHT22;2007;48.750;9.278;2022-09-09T16:39:02;23.10;54.00